sensor_id;sensor_type;location;lat;lon;timestamp;pressure;altitude;pressure_sealevel;temperature;humidity
26043;BME280;13818;52.156;5.382;2024-01-15T00:01:21;100056.53;;;2.68;100.00
26043;BME280;13818;52.156;5.382;2024-01-15T00:03:50;100053.72;;;2.74;100.00
26043;BME280;13818;52.156;5.382;2024-01-15T00:06:17;100048.72;;;2.65;100.00
26043;BME280;13818;52.156;5.382;2024-01-15T00:08:44;100046.09;;;2.65;100.00
26043;BME280;13818;52.156;5.382;2024-01-15T00:11:11;100039.09;;;2.64;100.00
26043;BME280;13818;52.156;5.382;2024-01-15T00:13:38;100034.09;;;2.55;100.00
26043;BME280;13818;52.156;5.382;2024-01-15T00:16:10;100039.41;;;2.52;100.00
26043;BME280;13818;52.156;5.382;2024-01-15T00:18:40;100038.50;;;2.53;100.00
26043;BME280;13818;52.156;5.382;2024-01-15T00:21:08;100027.25;;;2.48;100.00
26043;BME280;13818;52.156;5.382;2024-01-15T00:23:35;100028.94;;;2.50;100.00
26043;BME280;13818;52.156;5.382;2024-01-15T00:26:04;100024.47;;;2.54;100.00
26043;BME280;13818;52.156;5.382;2024-01-15T00:28:31;100019.34;;;2.48;100.00
26043;BME280;13818;52.156;5.382;2024-01-15T00:31:03;100017.81;;;2.39;100.00
26043;BME280;13818;52.156;5.382;2024-01-15T00:33:32;100017.00;;;2.37;100.00
26043;BME280;13818;52.156;5.382;2024-01-15T00:35:59;100023.03;;;2.40;100.00
26043;BME280;13818;52.156;5.382;2024-01-15T00:38:29;100008.09;;;2.42;100.00
26043;BME280;13818;52.156;5.382;2024-01-15T00:40:57;100013.34;;;2.42;100.00
26043;BME280;13818;52.156;5.382;2024-01-15T00:43:24;100007.25;;;2.40;100.00
26043;BME280;13818;52.156;5.382;2024-01-15T00:45:51;100002.09;;;2.37;100.00
26043;BME280;13818;52.156;5.382;2024-01-15T00:48:20;100002.16;;;2.34;100.00
26043;BME280;13818;52.156;5.382;2024-01-15T00:50:59;99996.91;;;2.34;100.00
26043;BME280;13818;52.156;5.382;2024-01-15T00:53:28;99998.56;;;2.37;100.00
26043;BME280;13818;52.156;5.382;2024-01-15T00:55:58;99989.59;;;2.46;100.00
26043;BME280;13818;52.156;5.382;2024-01-15T00:58:25;99992.22;;;2.46;100.00
26043;BME280;13818;52.156;5.382;2024-01-15T01:00:52;99992.16;;;2.49;100.00
26043;BME280;13818;52.156;5.382;2024-01-15T01:03:22;99990.31;;;2.52;100.00
26043;BME280;13818;52.156;5.382;2024-01-15T01:05:53;99993.16;;;2.43;100.00
26043;BME280;13818;52.156;5.382;2024-01-15T01:08:22;99977.03;;;2.22;100.00
26043;BME280;13818;52.156;5.382;2024-01-15T01:10:49;99972.59;;;2.24;100.00
26043;BME280;13818;52.156;5.382;2024-01-15T01:13:19;99974.47;;;2.21;100.00
26043;BME280;13818;52.156;5.382;2024-01-15T01:15:48;99975.56;;;2.10;100.00
26043;BME280;13818;52.156;5.382;2024-01-15T01:18:18;99973.13;;;2.04;100.00
26043;BME280;13818;52.156;5.382;2024-01-15T01:20:45;99974.81;;;2.07;100.00
26043;BME280;13818;52.156;5.382;2024-01-15T01:23:13;99977.19;;;2.16;100.00
26043;BME280;13818;52.156;5.382;2024-01-15T01:25:41;99976.22;;;2.20;100.00
26043;BME280;13818;52.156;5.382;2024-01-15T01:28:08;99981.28;;;2.28;100.00
26043;BME280;13818;52.156;5.382;2024-01-15T01:30:35;99983.91;;;2.28;100.00
26043;BME280;13818;52.156;5.382;2024-01-15T01:33:02;99979.38;;;2.35;100.00
26043;BME280;13818;52.156;5.382;2024-01-15T01:35:30;99982.94;;;2.32;100.00
26043;BME280;13818;52.156;5.382;2024-01-15T01:37:57;99989.88;;;2.35;100.00
26043;BME280;13818;52.156;5.382;2024-01-15T01:40:25;99988.06;;;2.37;100.00
26043;BME280;13818;52.156;5.382;2024-01-15T01:42:53;99985.22;;;2.46;100.00
26043;BME280;13818;52.156;5.382;2024-01-15T01:45:21;99986.09;;;2.45;100.00
26043;BME280;13818;52.156;5.382;2024-01-15T01:47:51;99979.22;;;2.39;100.00
26043;BME280;13818;52.156;5.382;2024-01-15T01:50:18;99981.28;;;2.28;100.00
26043;BME280;13818;52.156;5.382;2024-01-15T01:52:55;99979.44;;;2.32;100.00
26043;BME280;13818;52.156;5.382;2024-01-15T01:55:36;99980.53;;;2.23;100.00
26043;BME280;13818;52.156;5.382;2024-01-15T01:58:04;99981.91;;;2.38;100.00
26043;BME280;13818;52.156;5.382;2024-01-15T02:00:32;99973.13;;;2.39;100.00
26043;BME280;13818;52.156;5.382;2024-01-15T02:03:01;99973.53;;;2.22;100.00
26043;BME280;13818;52.156;5.382;2024-01-15T02:05:30;99984.34;;;2.11;100.00
26043;BME280;13818;52.156;5.382;2024-01-15T02:07:58;99995.56;;;2.18;100.00
26043;BME280;13818;52.156;5.382;2024-01-15T02:10:26;100001.81;;;2.14;100.00
26043;BME280;13818;52.156;5.382;2024-01-15T02:12:53;100006.00;;;2.21;100.00
26043;BME280;13818;52.156;5.382;2024-01-15T02:15:23;99988.66;;;2.14;100.00
26043;BME280;13818;52.156;5.382;2024-01-15T02:17:58;99992.28;;;2.08;100.00
26043;BME280;13818;52.156;5.382;2024-01-15T02:20:29;99990.31;;;2.18;100.00
26043;BME280;13818;52.156;5.382;2024-01-15T02:23:11;99989.44;;;2.17;100.00
26043;BME280;13818;52.156;5.382;2024-01-15T02:25:42;99981.44;;;2.22;100.00
26043;BME280;13818;52.156;5.382;2024-01-15T02:28:16;99990.09;;;2.25;100.00
26043;BME280;13818;52.156;5.382;2024-01-15T02:30:44;99986.63;;;2.25;100.00
26043;BME280;13818;52.156;5.382;2024-01-15T02:33:11;99985.53;;;2.34;100.00
26043;BME280;13818;52.156;5.382;2024-01-15T02:35:41;99976.59;;;2.39;100.00
26043;BME280;13818;52.156;5.382;2024-01-15T02:38:10;99986.16;;;2.42;100.00
26043;BME280;13818;52.156;5.382;2024-01-15T02:40:38;99976.47;;;2.44;100.00
26043;BME280;13818;52.156;5.382;2024-01-15T02:43:08;99973.13;;;2.39;100.00
26043;BME280;13818;52.156;5.382;2024-01-15T02:45:39;99974.00;;;2.38;100.00
26043;BME280;13818;52.156;5.382;2024-01-15T02:48:09;99970.84;;;2.25;100.00
26043;BME280;13818;52.156;5.382;2024-01-15T02:50:38;99973.22;;;2.34;100.00
26043;BME280;13818;52.156;5.382;2024-01-15T02:53:05;99974.91;;;2.38;100.00
26043;BME280;13818;52.156;5.382;2024-01-15T02:55:37;99977.34;;;2.44;100.00
26043;BME280;13818;52.156;5.382;2024-01-15T02:58:07;99967.81;;;2.40;100.00
26043;BME280;13818;52.156;5.382;2024-01-15T03:00:34;99973.13;;;2.39;100.00
26043;BME280;13818;52.156;5.382;2024-01-15T03:03:03;99973.84;;;2.44;100.00
26043;BME280;13818;52.156;5.382;2024-01-15T03:05:30;99967.91;;;2.37;100.00
26043;BME280;13818;52.156;5.382;2024-01-15T03:07:57;99963.44;;;2.39;100.00
26043;BME280;13818;52.156;5.382;2024-01-15T03:10:25;99960.69;;;2.44;100.00
26043;BME280;13818;52.156;5.382;2024-01-15T03:12:57;99953.91;;;2.35;100.00
26043;BME280;13818;52.156;5.382;2024-01-15T03:15:26;99961.69;;;2.40;100.00
26043;BME280;13818;52.156;5.382;2024-01-15T03:17:54;99957.41;;;2.36;100.00
26043;BME280;13818;52.156;5.382;2024-01-15T03:20:21;99960.22;;;2.28;100.00
26043;BME280;13818;52.156;5.382;2024-01-15T03:22:51;99967.19;;;2.31;100.00
26043;BME280;13818;52.156;5.382;2024-01-15T03:25:20;99961.03;;;2.32;100.00
26043;BME280;13818;52.156;5.382;2024-01-15T03:27:47;99963.69;;;2.30;100.00
26043;BME280;13818;52.156;5.382;2024-01-15T03:30:16;99980.22;;;2.35;100.00
26043;BME280;13818;52.156;5.382;2024-01-15T03:32:43;99975.94;;;2.31;100.00
26043;BME280;13818;52.156;5.382;2024-01-15T03:35:13;99994.16;;;2.39;100.00
26043;BME280;13818;52.156;5.382;2024-01-15T03:37:40;99991.84;;;2.26;100.00
26043;BME280;13818;52.156;5.382;2024-01-15T03:40:08;100004.09;;;2.27;100.00
26043;BME280;13818;52.156;5.382;2024-01-15T03:42:38;99999.81;;;2.22;100.00
26043;BME280;13818;52.156;5.382;2024-01-15T03:45:06;99977.53;;;2.37;100.00
26043;BME280;13818;52.156;5.382;2024-01-15T03:47:35;99969.69;;;2.35;100.00
26043;BME280;13818;52.156;5.382;2024-01-15T03:50:04;99964.28;;;2.41;100.00
26043;BME280;13818;52.156;5.382;2024-01-15T03:52:37;99951.00;;;2.46;100.00
26043;BME280;13818;52.156;5.382;2024-01-15T03:55:05;99958.53;;;2.60;100.00
26043;BME280;13818;52.156;5.382;2024-01-15T03:57:32;99953.84;;;2.71;100.00
26043;BME280;13818;52.156;5.382;2024-01-15T03:59:59;99939.41;;;2.85;100.00
26043;BME280;13818;52.156;5.382;2024-01-15T04:02:26;99947.19;;;2.89;100.00
26043;BME280;13818;52.156;5.382;2024-01-15T04:04:55;99935.91;;;2.84;100.00
26043;BME280;13818;52.156;5.382;2024-01-15T04:07:22;99931.84;;;2.74;100.00
26043;BME280;13818;52.156;5.382;2024-01-15T04:09:49;99930.66;;;2.84;100.00
26043;BME280;13818;52.156;5.382;2024-01-15T04:12:19;99925.09;;;2.95;100.00
26043;BME280;13818;52.156;5.382;2024-01-15T04:14:48;99930.88;;;2.76;100.00
26043;BME280;13818;52.156;5.382;2024-01-15T04:17:16;99929.03;;;2.79;100.00
26043;BME280;13818;52.156;5.382;2024-01-15T04:19:43;99917.66;;;2.78;100.00
26043;BME280;13818;52.156;5.382;2024-01-15T04:22:12;99925.19;;;2.60;100.00
26043;BME280;13818;52.156;5.382;2024-01-15T04:24:42;99916.09;;;2.71;100.00
26043;BME280;13818;52.156;5.382;2024-01-15T04:27:09;99911.06;;;2.63;100.00
26043;BME280;13818;52.156;5.382;2024-01-15T04:29:39;99920.75;;;2.63;100.00
26043;BME280;13818;52.156;5.382;2024-01-15T04:32:06;99914.88;;;2.53;100.00
26043;BME280;13818;52.156;5.382;2024-01-15T04:34:35;99914.41;;;2.38;100.00
26043;BME280;13818;52.156;5.382;2024-01-15T04:37:02;99905.59;;;2.39;100.00
26043;BME280;13818;52.156;5.382;2024-01-15T04:39:31;99907.19;;;2.45;100.00
26043;BME280;13818;52.156;5.382;2024-01-15T04:41:58;99905.88;;;2.62;100.00
26043;BME280;13818;52.156;5.382;2024-01-15T04:44:26;99905.03;;;2.59;100.00
26043;BME280;13818;52.156;5.382;2024-01-15T04:47:00;99898.03;;;2.60;100.00
26043;BME280;13818;52.156;5.382;2024-01-15T04:49:30;99891.97;;;2.56;100.00
26043;BME280;13818;52.156;5.382;2024-01-15T04:51:57;99891.81;;;2.63;100.00
26043;BME280;13818;52.156;5.382;2024-01-15T04:54:27;99905.00;;;2.61;100.00
26043;BME280;13818;52.156;5.382;2024-01-15T04:56:55;99919.31;;;2.51;100.00
26043;BME280;13818;52.156;5.382;2024-01-15T04:59:22;99906.25;;;2.48;100.00
26043;BME280;13818;52.156;5.382;2024-01-15T05:01:49;99902.06;;;2.40;100.00
26043;BME280;13818;52.156;5.382;2024-01-15T05:04:20;99906.81;;;2.59;100.00
26043;BME280;13818;52.156;5.382;2024-01-15T05:06:47;99899.25;;;2.47;100.00
26043;BME280;13818;52.156;5.382;2024-01-15T05:09:14;99897.13;;;2.28;100.00
26043;BME280;13818;52.156;5.382;2024-01-15T05:11:42;99883.19;;;2.26;100.00
26043;BME280;13818;52.156;5.382;2024-01-15T05:14:10;99877.19;;;2.21;100.00
26043;BME280;13818;52.156;5.382;2024-01-15T05:16:38;99875.41;;;2.21;100.00
26043;BME280;13818;52.156;5.382;2024-01-15T05:19:14;99880.44;;;2.29;100.00
26043;BME280;13818;52.156;5.382;2024-01-15T05:21:45;99883.97;;;2.28;100.00
26043;BME280;13818;52.156;5.382;2024-01-15T05:24:16;99883.75;;;2.36;100.00
26043;BME280;13818;52.156;5.382;2024-01-15T05:26:43;99876.09;;;2.28;100.00
26043;BME280;13818;52.156;5.382;2024-01-15T05:29:14;99878.56;;;2.34;100.00
26043;BME280;13818;52.156;5.382;2024-01-15T05:31:42;99880.50;;;2.27;100.00
26043;BME280;13818;52.156;5.382;2024-01-15T05:34:12;99890.91;;;2.31;100.00
26043;BME280;13818;52.156;5.382;2024-01-15T05:36:39;99891.59;;;2.39;100.00
26043;BME280;13818;52.156;5.382;2024-01-15T05:39:08;99890.53;;;2.44;100.00
26043;BME280;13818;52.156;5.382;2024-01-15T05:41:35;99898.63;;;2.38;100.00
26043;BME280;13818;52.156;5.382;2024-01-15T05:44:06;99898.78;;;2.32;100.00
26043;BME280;13818;52.156;5.382;2024-01-15T05:46:37;99896.09;;;2.34;100.00
26043;BME280;13818;52.156;5.382;2024-01-15T05:49:04;99896.47;;;2.53;100.00
26043;BME280;13818;52.156;5.382;2024-01-15T05:51:34;99891.06;;;2.57;100.00
26043;BME280;13818;52.156;5.382;2024-01-15T05:54:01;99897.88;;;2.65;100.00
26043;BME280;13818;52.156;5.382;2024-01-15T05:56:28;99897.91;;;2.63;100.00
26043;BME280;13818;52.156;5.382;2024-01-15T05:58:56;99905.00;;;2.61;100.00
26043;BME280;13818;52.156;5.382;2024-01-15T06:01:24;99909.34;;;2.62;100.00
26043;BME280;13818;52.156;5.382;2024-01-15T06:03:53;99911.03;;;2.65;100.00
26043;BME280;13818;52.156;5.382;2024-01-15T06:06:20;99918.91;;;2.66;100.00
26043;BME280;13818;52.156;5.382;2024-01-15T06:08:48;99915.81;;;2.50;100.00
26043;BME280;13818;52.156;5.382;2024-01-15T06:11:16;99901.09;;;2.43;100.00
26043;BME280;13818;52.156;5.382;2024-01-15T06:13:44;99887.59;;;2.24;100.00
26043;BME280;13818;52.156;5.382;2024-01-15T06:16:16;99894.28;;;2.36;100.00
26043;BME280;13818;52.156;5.382;2024-01-15T06:18:47;99891.69;;;2.34;100.00
26043;BME280;13818;52.156;5.382;2024-01-15T06:21:16;99886.44;;;2.34;100.00
26043;BME280;13818;52.156;5.382;2024-01-15T06:23:43;99883.81;;;2.34;100.00
26043;BME280;13818;52.156;5.382;2024-01-15T06:26:13;99884.94;;;2.25;100.00
26043;BME280;13818;52.156;5.382;2024-01-15T06:28:43;99876.97;;;2.28;100.00
26043;BME280;13818;52.156;5.382;2024-01-15T06:31:13;99888.91;;;2.40;100.00
26043;BME280;13818;52.156;5.382;2024-01-15T06:33:40;99893.00;;;2.51;100.00
26043;BME280;13818;52.156;5.382;2024-01-15T06:36:08;99878.78;;;2.58;100.00
26043;BME280;13818;52.156;5.382;2024-01-15T06:38:37;99879.69;;;2.57;100.00
26043;BME280;13818;52.156;5.382;2024-01-15T06:41:06;99883.00;;;2.64;100.00
26043;BME280;13818;52.156;5.382;2024-01-15T06:43:33;99875.28;;;2.57;100.00
26043;BME280;13818;52.156;5.382;2024-01-15T06:46:00;99880.78;;;2.48;100.00
26043;BME280;13818;52.156;5.382;2024-01-15T06:48:27;99882.19;;;2.62;100.00
26043;BME280;13818;52.156;5.382;2024-01-15T06:50:58;99873.22;;;2.67;100.00
26043;BME280;13818;52.156;5.382;2024-01-15T06:53:25;99875.88;;;2.67;100.00
26043;BME280;13818;52.156;5.382;2024-01-15T06:56:01;99863.00;;;2.58;100.00
26043;BME280;13818;52.156;5.382;2024-01-15T06:58:30;99867.41;;;2.57;100.00
26043;BME280;13818;52.156;5.382;2024-01-15T07:00:58;99861.19;;;2.60;100.00
26043;BME280;13818;52.156;5.382;2024-01-15T07:03:30;99862.88;;;2.63;100.00
26043;BME280;13818;52.156;5.382;2024-01-15T07:05:58;99863.94;;;2.55;100.00
26043;BME280;13818;52.156;5.382;2024-01-15T07:08:28;99864.03;;;2.52;100.00
26043;BME280;13818;52.156;5.382;2024-01-15T07:10:56;99870.94;;;2.56;100.00
26043;BME280;13818;52.156;5.382;2024-01-15T07:13:23;99884.88;;;2.60;100.00
26043;BME280;13818;52.156;5.382;2024-01-15T07:15:51;99891.13;;;2.23;100.00
26043;BME280;13818;52.156;5.382;2024-01-15T07:18:18;99904.59;;;2.12;100.00
26043;BME280;13818;52.156;5.382;2024-01-15T07:20:47;99912.84;;;1.97;100.00
26043;BME280;13818;52.156;5.382;2024-01-15T07:23:18;99902.41;;;1.93;100.00
26043;BME280;13818;52.156;5.382;2024-01-15T07:25:45;99886.91;;;1.84;100.00
26043;BME280;13818;52.156;5.382;2024-01-15T07:28:14;99877.34;;;1.80;100.00
26043;BME280;13818;52.156;5.382;2024-01-15T07:30:43;99883.09;;;1.96;100.00
26043;BME280;13818;52.156;5.382;2024-01-15T07:33:11;99877.91;;;1.93;100.00
26043;BME280;13818;52.156;5.382;2024-01-15T07:35:38;99876.78;;;2.03;100.00
26043;BME280;13818;52.156;5.382;2024-01-15T07:38:08;99886.13;;;2.14;100.00
26043;BME280;13818;52.156;5.382;2024-01-15T07:40:37;99877.19;;;2.19;100.00
26043;BME280;13818;52.156;5.382;2024-01-15T07:43:04;99878.19;;;2.15;100.00
26043;BME280;13818;52.156;5.382;2024-01-15T07:45:35;99886.59;;;2.28;100.00
26043;BME280;13818;52.156;5.382;2024-01-15T07:48:02;99906.84;;;2.26;100.00
26043;BME280;13818;52.156;5.382;2024-01-15T07:50:33;99900.69;;;2.27;100.00
26043;BME280;13818;52.156;5.382;2024-01-15T07:53:02;99891.06;;;2.24;100.00
26043;BME280;13818;52.156;5.382;2024-01-15T07:55:31;99888.28;;;2.32;100.00
26043;BME280;13818;52.156;5.382;2024-01-15T07:57:58;99884.97;;;2.24;100.00
26043;BME280;13818;52.156;5.382;2024-01-15T08:00:25;99903.50;;;2.19;100.00
26043;BME280;13818;52.156;5.382;2024-01-15T08:02:57;99897.09;;;2.30;100.00
26043;BME280;13818;52.156;5.382;2024-01-15T08:05:24;99892.69;;;2.30;100.00
26043;BME280;13818;52.156;5.382;2024-01-15T08:07:53;99891.38;;;2.47;100.00
26043;BME280;13818;52.156;5.382;2024-01-15T08:10:23;99886.63;;;2.59;100.00
26043;BME280;13818;52.156;5.382;2024-01-15T08:12:53;99886.38;;;2.67;100.00
26043;BME280;13818;52.156;5.382;2024-01-15T08:15:20;99877.41;;;2.74;100.00
26043;BME280;13818;52.156;5.382;2024-01-15T08:17:47;99881.59;;;2.82;100.00
26043;BME280;13818;52.156;5.382;2024-01-15T08:20:21;99884.19;;;2.83;100.00
26043;BME280;13818;52.156;5.382;2024-01-15T08:22:48;99896.00;;;2.70;100.00
26043;BME280;13818;52.156;5.382;2024-01-15T08:25:15;99898.69;;;2.67;100.00
26043;BME280;13818;52.156;5.382;2024-01-15T08:27:43;99896.34;;;2.56;100.00
26043;BME280;13818;52.156;5.382;2024-01-15T08:30:11;99907.88;;;2.52;100.00
26043;BME280;13818;52.156;5.382;2024-01-15T08:32:41;99899.75;;;2.28;100.00
26043;BME280;13818;52.156;5.382;2024-01-15T08:35:08;99893.03;;;2.18;100.00
26043;BME280;13818;52.156;5.382;2024-01-15T08:40:05;99879.19;;;2.11;100.00
26043;BME280;13818;52.156;5.382;2024-01-15T08:42:32;99881.88;;;2.09;100.00
26043;BME280;13818;52.156;5.382;2024-01-15T08:44:59;99881.78;;;2.13;100.00
26043;BME280;13818;52.156;5.382;2024-01-15T08:47:27;99877.50;;;2.08;100.00
26043;BME280;13818;52.156;5.382;2024-01-15T08:49:57;99874.72;;;2.15;100.00
26043;BME280;13818;52.156;5.382;2024-01-15T08:52:24;99872.78;;;2.21;100.00
26043;BME280;13818;52.156;5.382;2024-01-15T08:54:53;99890.84;;;2.34;100.00
26043;BME280;13818;52.156;5.382;2024-01-15T08:57:22;99893.00;;;2.51;100.00
26043;BME280;13818;52.156;5.382;2024-01-15T08:59:49;99895.78;;;2.46;100.00
26043;BME280;13818;52.156;5.382;2024-01-15T09:02:17;99898.63;;;2.38;100.00
26043;BME280;13818;52.156;5.382;2024-01-15T09:04:44;99901.84;;;2.48;100.00
26043;BME280;13818;52.156;5.382;2024-01-15T09:07:11;99910.56;;;2.50;100.00
26043;BME280;13818;52.156;5.382;2024-01-15T09:09:38;99922.31;;;2.68;100.00
26043;BME280;13818;52.156;5.382;2024-01-15T09:12:07;99916.25;;;2.66;100.00
26043;BME280;13818;52.156;5.382;2024-01-15T09:14:37;99907.44;;;2.67;100.00
26043;BME280;13818;52.156;5.382;2024-01-15T09:17:07;99899.09;;;2.53;100.00
26043;BME280;13818;52.156;5.382;2024-01-15T09:19:34;99897.03;;;2.64;100.00
26043;BME280;13818;52.156;5.382;2024-01-15T09:22:01;99893.72;;;2.56;100.00
26043;BME280;13818;52.156;5.382;2024-01-15T09:24:31;99886.88;;;2.50;100.00
26043;BME280;13818;52.156;5.382;2024-01-15T09:26:58;99888.63;;;2.51;100.00
26043;BME280;13818;52.156;5.382;2024-01-15T09:29:28;99891.97;;;2.56;100.00
26043;BME280;13818;52.156;5.382;2024-01-15T09:31:56;99895.34;;;2.62;100.00
26043;BME280;13818;52.156;5.382;2024-01-15T09:34:23;99895.03;;;2.72;100.00
26043;BME280;13818;52.156;5.382;2024-01-15T09:36:51;99891.78;;;2.94;100.00
26043;BME280;13818;52.156;5.382;2024-01-15T09:39:19;99897.94;;;2.93;100.00
26043;BME280;13818;52.156;5.382;2024-01-15T09:41:47;99897.53;;;3.07;100.00
26043;BME280;13818;52.156;5.382;2024-01-15T09:44:16;99892.31;;;3.05;100.00
26043;BME280;13818;52.156;5.382;2024-01-15T09:46:48;99898.19;;;3.14;100.00
26043;BME280;13818;52.156;5.382;2024-01-15T09:49:18;99892.75;;;3.20;100.00
26043;BME280;13818;52.156;5.382;2024-01-15T09:51:47;99900.03;;;3.12;100.00
26043;BME280;13818;52.156;5.382;2024-01-15T09:54:15;99884.22;;;3.12;100.00
26043;BME280;13818;52.156;5.382;2024-01-15T09:56:47;99900.09;;;3.08;100.00
26043;BME280;13818;52.156;5.382;2024-01-15T09:59:18;99901.66;;;3.16;100.00
26043;BME280;13818;52.156;5.382;2024-01-15T10:01:49;99899.63;;;3.24;100.00
26043;BME280;13818;52.156;5.382;2024-01-15T10:04:17;99911.13;;;3.21;100.00
26043;BME280;13818;52.156;5.382;2024-01-15T10:06:45;99916.06;;;3.32;100.00
26043;BME280;13818;52.156;5.382;2024-01-15T10:09:13;99920.25;;;3.39;100.00
26043;BME280;13818;52.156;5.382;2024-01-15T10:11:42;99905.09;;;3.46;100.00
26043;BME280;13818;52.156;5.382;2024-01-15T10:14:12;99905.94;;;3.47;100.00
26043;BME280;13818;52.156;5.382;2024-01-15T10:16:40;99891.03;;;3.47;100.00
26043;BME280;13818;52.156;5.382;2024-01-15T10:19:09;99904.31;;;3.42;100.00
26043;BME280;13818;52.156;5.382;2024-01-15T10:21:37;99912.81;;;3.52;100.00
26043;BME280;13818;52.156;5.382;2024-01-15T10:24:04;99926.56;;;3.62;100.00
26043;BME280;13818;52.156;5.382;2024-01-15T10:26:32;99921.88;;;3.70;100.00
26043;BME280;13818;52.156;5.382;2024-01-15T10:29:05;99927.78;;;3.79;100.00
26043;BME280;13818;52.156;5.382;2024-01-15T10:31:35;99918.94;;;3.53;100.00
26043;BME280;13818;52.156;5.382;2024-01-15T10:34:16;99904.81;;;3.27;100.00
26043;BME280;13818;52.156;5.382;2024-01-15T10:36:45;99912.66;;;3.00;100.00
26043;BME280;13818;52.156;5.382;2024-01-15T10:39:18;99901.94;;;2.76;100.00
26043;BME280;13818;52.156;5.382;2024-01-15T10:41:48;99912.56;;;2.72;100.00
26043;BME280;13818;52.156;5.382;2024-01-15T10:44:16;99911.56;;;2.78;100.00
26043;BME280;13818;52.156;5.382;2024-01-15T10:46:48;99910.03;;;2.99;100.00
26043;BME280;13818;52.156;5.382;2024-01-15T10:49:18;99905.31;;;3.10;100.00
26043;BME280;13818;52.156;5.382;2024-01-15T10:51:47;99913.81;;;3.20;100.00
26043;BME280;13818;52.156;5.382;2024-01-15T10:54:16;99910.44;;;3.15;100.00
26043;BME280;13818;52.156;5.382;2024-01-15T10:56:45;99919.00;;;3.23;100.00
26043;BME280;13818;52.156;5.382;2024-01-15T10:59:13;99936.13;;;3.36;100.00
26043;BME280;13818;52.156;5.382;2024-01-15T11:01:42;99934.84;;;3.50;100.00
26043;BME280;13818;52.156;5.382;2024-01-15T11:04:09;99938.00;;;3.61;100.00
26043;BME280;13818;52.156;5.382;2024-01-15T11:06:45;99950.88;;;3.70;100.00
26043;BME280;13818;52.156;5.382;2024-01-15T11:09:13;99939.47;;;3.70;100.00
26043;BME280;13818;52.156;5.382;2024-01-15T11:11:44;99937.56;;;3.47;100.00
26043;BME280;13818;52.156;5.382;2024-01-15T11:14:33;99946.00;;;3.30;100.00
26043;BME280;13818;52.156;5.382;2024-01-15T11:17:02;99939.47;;;3.13;100.00
26043;BME280;13818;52.156;5.382;2024-01-15T11:19:43;99946.66;;;3.08;100.00
26043;BME280;13818;52.156;5.382;2024-01-15T11:22:47;99950.13;;;3.08;100.00
26043;BME280;13818;52.156;5.382;2024-01-15T11:25:21;99952.63;;;3.13;100.00
26043;BME280;13818;52.156;5.382;2024-01-15T11:27:50;99948.16;;;3.17;100.00
26043;BME280;13818;52.156;5.382;2024-01-15T11:30:19;99935.75;;;3.20;100.00
26043;BME280;13818;52.156;5.382;2024-01-15T11:32:47;99942.50;;;3.29;100.00
26043;BME280;13818;52.156;5.382;2024-01-15T11:35:16;99945.16;;;3.28;100.00
26043;BME280;13818;52.156;5.382;2024-01-15T11:37:59;99930.50;;;3.19;100.00
26043;BME280;13818;52.156;5.382;2024-01-15T11:40:38;99930.44;;;3.22;100.00
26043;BME280;13818;52.156;5.382;2024-01-15T11:43:09;99949.94;;;3.15;100.00
26043;BME280;13818;52.156;5.382;2024-01-15T11:45:39;99949.88;;;3.18;100.00
26043;BME280;13818;52.156;5.382;2024-01-15T11:48:11;99946.22;;;3.22;100.00
26043;BME280;13818;52.156;5.382;2024-01-15T11:50:40;99963.53;;;3.31;100.00
26043;BME280;13818;52.156;5.382;2024-01-15T11:53:16;99955.63;;;3.31;100.00
26043;BME280;13818;52.156;5.382;2024-01-15T11:55:53;99951.41;;;3.25;100.00
26043;BME280;13818;52.156;5.382;2024-01-15T11:58:25;99954.03;;;3.25;100.00
26043;BME280;13818;52.156;5.382;2024-01-15T12:00:52;99949.41;;;3.33;100.00
26043;BME280;13818;52.156;5.382;2024-01-15T12:03:21;99950.78;;;3.45;100.00
26043;BME280;13818;52.156;5.382;2024-01-15T12:05:49;99946.94;;;3.57;100.00
26043;BME280;13818;52.156;5.382;2024-01-15T12:08:22;99958.94;;;3.66;100.00
26043;BME280;13818;52.156;5.382;2024-01-15T12:10:52;99972.88;;;3.69;100.00
26043;BME280;13818;52.156;5.382;2024-01-15T12:13:20;99967.41;;;3.47;100.00
26043;BME280;13818;52.156;5.382;2024-01-15T12:15:49;99971.72;;;3.50;100.00
26043;BME280;13818;52.156;5.382;2024-01-15T12:18:17;99975.09;;;3.25;100.00
26043;BME280;13818;52.156;5.382;2024-01-15T12:20:47;99996.16;;;2.95;100.00
26043;BME280;13818;52.156;5.382;2024-01-15T12:23:14;99990.97;;;2.92;100.00
26043;BME280;13818;52.156;5.382;2024-01-15T12:25:43;99984.06;;;2.88;100.00
26043;BME280;13818;52.156;5.382;2024-01-15T12:28:11;99983.84;;;2.96;100.00
26043;BME280;13818;52.156;5.382;2024-01-15T12:30:39;99989.00;;;3.00;100.00
26043;BME280;13818;52.156;5.382;2024-01-15T12:33:10;99993.88;;;2.83;100.00
26043;BME280;13818;52.156;5.382;2024-01-15T12:35:37;99998.31;;;2.81;100.00
26043;BME280;13818;52.156;5.382;2024-01-15T12:38:05;100006.19;;;2.81;100.00
26043;BME280;13818;52.156;5.382;2024-01-15T12:40:35;100009.03;;;2.73;100.00
26043;BME280;13818;52.156;5.382;2024-01-15T12:43:08;100003.16;;;2.63;100.00
26043;BME280;13818;52.156;5.382;2024-01-15T12:45:38;99991.06;;;2.56;100.00
26043;BME280;13818;52.156;5.382;2024-01-15T12:48:08;100000.41;;;2.33;100.00
26043;BME280;13818;52.156;5.382;2024-01-15T12:50:35;99997.63;;;2.39;100.00
26043;BME280;13818;52.156;5.382;2024-01-15T12:53:06;99996.53;;;2.48;100.00
26043;BME280;13818;52.156;5.382;2024-01-15T12:55:33;99995.44;;;2.57;100.00
26043;BME280;13818;52.156;5.382;2024-01-15T12:58:01;99993.31;;;2.71;100.00
26043;BME280;13818;52.156;5.382;2024-01-15T13:00:29;99995.50;;;2.87;100.00
26043;BME280;13818;52.156;5.382;2024-01-15T13:02:57;99990.91;;;2.93;100.00
26043;BME280;13818;52.156;5.382;2024-01-15T13:05:26;99989.03;;;2.99;100.00
26043;BME280;13818;52.156;5.382;2024-01-15T13:07:54;100004.97;;;2.94;100.00
26043;BME280;13818;52.156;5.382;2024-01-15T13:10:21;100005.59;;;3.02;100.00
26043;BME280;13818;52.156;5.382;2024-01-15T13:12:50;100014.06;;;3.14;100.00